sensor_id;sensor_type;location;lat;lon;timestamp;temperature;humidity
66013;DHT22;52783;50.502;8.190;2023-02-01T00:01:53;4.20;99.90
66013;DHT22;52783;50.502;8.190;2023-02-01T00:04:19;4.20;99.90
66013;DHT22;52783;50.502;8.190;2023-02-01T00:06:45;4.30;99.90
66013;DHT22;52783;50.502;8.190;2023-02-01T00:09:11;4.30;99.90
66013;DHT22;52783;50.502;8.190;2023-02-01T00:11:36;4.30;99.90
66013;DHT22;52783;50.502;8.190;2023-02-01T00:14:02;4.40;99.90
66013;DHT22;52783;50.502;8.190;2023-02-01T00:16:29;4.40;99.90
66013;DHT22;52783;50.502;8.190;2023-02-01T00:19:04;4.40;99.90
66013;DHT22;52783;50.502;8.190;2023-02-01T00:21:30;4.40;99.90
66013;DHT22;52783;50.502;8.190;2023-02-01T00:23:56;4.40;99.90
66013;DHT22;52783;50.502;8.190;2023-02-01T00:26:47;4.40;99.90
66013;DHT22;52783;50.502;8.190;2023-02-01T00:29:19;4.50;99.90
66013;DHT22;52783;50.502;8.190;2023-02-01T00:31:45;4.50;99.90
66013;DHT22;52783;50.502;8.190;2023-02-01T00:34:13;4.50;99.90
66013;DHT22;52783;50.502;8.190;2023-02-01T00:36:39;4.60;99.90
66013;DHT22;52783;50.502;8.190;2023-02-01T00:39:05;4.60;99.90
66013;DHT22;52783;50.502;8.190;2023-02-01T00:41:30;4.60;99.90
66013;DHT22;52783;50.502;8.190;2023-02-01T00:43:56;4.60;99.90
66013;DHT22;52783;50.502;8.190;2023-02-01T00:46:22;4.60;99.90
66013;DHT22;52783;50.502;8.190;2023-02-01T00:48:48;4.60;99.90
66013;DHT22;52783;50.502;8.190;2023-02-01T00:51:20;4.60;99.90
66013;DHT22;52783;50.502;8.190;2023-02-01T00:53:46;4.60;99.90
66013;DHT22;52783;50.502;8.190;2023-02-01T00:56:12;4.60;99.90
66013;DHT22;52783;50.502;8.190;2023-02-01T00:58:37;4.70;99.90
66013;DHT22;52783;50.502;8.190;2023-02-01T01:03:41;4.70;99.90
66013;DHT22;52783;50.502;8.190;2023-02-01T01:06:21;4.70;99.90
66013;DHT22;52783;50.502;8.190;2023-02-01T01:08:47;4.70;99.90
66013;DHT22;52783;50.502;8.190;2023-02-01T01:11:15;4.80;99.90
66013;DHT22;52783;50.502;8.190;2023-02-01T01:13:41;4.70;99.90
66013;DHT22;52783;50.502;8.190;2023-02-01T01:16:08;4.70;99.90
66013;DHT22;52783;50.502;8.190;2023-02-01T01:18:34;4.70;99.90
66013;DHT22;52783;50.502;8.190;2023-02-01T01:21:00;4.70;99.90
66013;DHT22;52783;50.502;8.190;2023-02-01T01:23:27;4.70;99.90
66013;DHT22;52783;50.502;8.190;2023-02-01T01:25:53;4.70;99.90
66013;DHT22;52783;50.502;8.190;2023-02-01T01:28:19;4.70;99.90
66013;DHT22;52783;50.502;8.190;2023-02-01T01:30:44;4.80;99.90
66013;DHT22;52783;50.502;8.190;2023-02-01T01:33:10;4.70;99.90
66013;DHT22;52783;50.502;8.190;2023-02-01T01:35:36;4.80;99.90
66013;DHT22;52783;50.502;8.190;2023-02-01T01:38:02;4.80;99.90
66013;DHT22;52783;50.502;8.190;2023-02-01T01:40:28;4.80;99.90
66013;DHT22;52783;50.502;8.190;2023-02-01T01:42:54;4.80;99.90
66013;DHT22;52783;50.502;8.190;2023-02-01T01:47:58;4.80;99.90
66013;DHT22;52783;50.502;8.190;2023-02-01T01:50:31;4.80;99.90
66013;DHT22;52783;50.502;8.190;2023-02-01T01:53:01;4.80;99.90
66013;DHT22;52783;50.502;8.190;2023-02-01T01:55:31;4.80;99.90
66013;DHT22;52783;50.502;8.190;2023-02-01T01:58:04;4.70;99.90
66013;DHT22;52783;50.502;8.190;2023-02-01T02:00:31;4.70;99.90
66013;DHT22;52783;50.502;8.190;2023-02-01T02:03:05;4.80;99.90
66013;DHT22;52783;50.502;8.190;2023-02-01T02:05:32;4.80;99.90
66013;DHT22;52783;50.502;8.190;2023-02-01T02:07:59;4.80;99.90
66013;DHT22;52783;50.502;8.190;2023-02-01T02:10:27;4.80;99.90
66013;DHT22;52783;50.502;8.190;2023-02-01T02:13:13;4.80;99.90
66013;DHT22;52783;50.502;8.190;2023-02-01T02:15:45;4.80;99.90
66013;DHT22;52783;50.502;8.190;2023-02-01T02:18:22;4.80;99.90
66013;DHT22;52783;50.502;8.190;2023-02-01T02:21:10;4.80;99.90
66013;DHT22;52783;50.502;8.190;2023-02-01T02:26:21;4.80;99.90
66013;DHT22;52783;50.502;8.190;2023-02-01T02:32:00;4.90;99.90
66013;DHT22;52783;50.502;8.190;2023-02-01T02:34:46;4.90;99.90
66013;DHT22;52783;50.502;8.190;2023-02-01T02:37:30;4.80;99.90
66013;DHT22;52783;50.502;8.190;2023-02-01T02:40:08;4.90;99.90
66013;DHT22;52783;50.502;8.190;2023-02-01T02:42:58;4.80;99.90
66013;DHT22;52783;50.502;8.190;2023-02-01T02:49:44;4.80;99.90
66013;DHT22;52783;50.502;8.190;2023-02-01T02:52:37;4.90;99.90
66013;DHT22;52783;50.502;8.190;2023-02-01T02:55:25;5.00;99.90
66013;DHT22;52783;50.502;8.190;2023-02-01T02:57:52;4.90;99.90
66013;DHT22;52783;50.502;8.190;2023-02-01T03:00:37;5.00;99.90
66013;DHT22;52783;50.502;8.190;2023-02-01T03:03:21;4.90;99.90
66013;DHT22;52783;50.502;8.190;2023-02-01T03:06:13;4.90;99.90
66013;DHT22;52783;50.502;8.190;2023-02-01T03:08:41;4.90;99.90
66013;DHT22;52783;50.502;8.190;2023-02-01T03:11:14;4.90;99.90
66013;DHT22;52783;50.502;8.190;2023-02-01T03:16:11;4.90;99.90
66013;DHT22;52783;50.502;8.190;2023-02-01T03:24:16;4.90;99.90
66013;DHT22;52783;50.502;8.190;2023-02-01T03:26:50;5.00;99.90
66013;DHT22;52783;50.502;8.190;2023-02-01T03:29:26;4.90;99.90
66013;DHT22;52783;50.502;8.190;2023-02-01T03:31:52;4.90;99.90
66013;DHT22;52783;50.502;8.190;2023-02-01T03:34:18;4.90;99.90
66013;DHT22;52783;50.502;8.190;2023-02-01T03:36:59;4.90;99.90
66013;DHT22;52783;50.502;8.190;2023-02-01T03:39:34;5.00;99.90
66013;DHT22;52783;50.502;8.190;2023-02-01T03:42:04;5.00;99.90
66013;DHT22;52783;50.502;8.190;2023-02-01T03:44:34;4.90;99.90
66013;DHT22;52783;50.502;8.190;2023-02-01T03:47:13;4.90;99.90
66013;DHT22;52783;50.502;8.190;2023-02-01T03:49:55;4.90;99.90
66013;DHT22;52783;50.502;8.190;2023-02-01T03:52:26;4.90;99.90
66013;DHT22;52783;50.502;8.190;2023-02-01T03:54:53;4.90;99.90
66013;DHT22;52783;50.502;8.190;2023-02-01T03:57:25;4.90;99.90
66013;DHT22;52783;50.502;8.190;2023-02-01T03:59:52;4.90;99.90
66013;DHT22;52783;50.502;8.190;2023-02-01T04:02:17;5.00;99.90
66013;DHT22;52783;50.502;8.190;2023-02-01T04:04:43;5.00;99.90
66013;DHT22;52783;50.502;8.190;2023-02-01T04:07:09;5.00;99.90
66013;DHT22;52783;50.502;8.190;2023-02-01T04:09:35;5.00;99.90
66013;DHT22;52783;50.502;8.190;2023-02-01T04:12:00;5.00;99.90
66013;DHT22;52783;50.502;8.190;2023-02-01T04:14:26;4.90;99.90
66013;DHT22;52783;50.502;8.190;2023-02-01T04:16:52;5.00;99.90
66013;DHT22;52783;50.502;8.190;2023-02-01T04:19:18;5.00;99.90
66013;DHT22;52783;50.502;8.190;2023-02-01T04:21:43;5.00;99.90
66013;DHT22;52783;50.502;8.190;2023-02-01T04:24:09;5.00;99.90
66013;DHT22;52783;50.502;8.190;2023-02-01T04:26:34;5.00;99.90
66013;DHT22;52783;50.502;8.190;2023-02-01T04:29:00;5.00;99.90
66013;DHT22;52783;50.502;8.190;2023-02-01T04:31:25;5.00;99.90
66013;DHT22;52783;50.502;8.190;2023-02-01T04:33:53;5.00;99.90
66013;DHT22;52783;50.502;8.190;2023-02-01T04:36:20;5.00;99.90
66013;DHT22;52783;50.502;8.190;2023-02-01T04:38:51;4.90;99.90
66013;DHT22;52783;50.502;8.190;2023-02-01T04:41:17;5.00;99.90
66013;DHT22;52783;50.502;8.190;2023-02-01T04:43:49;5.00;99.90
66013;DHT22;52783;50.502;8.190;2023-02-01T04:46:15;5.00;99.90
66013;DHT22;52783;50.502;8.190;2023-02-01T04:48:41;5.00;99.90
66013;DHT22;52783;50.502;8.190;2023-02-01T04:51:07;5.00;99.90
66013;DHT22;52783;50.502;8.190;2023-02-01T04:53:33;5.00;99.90
66013;DHT22;52783;50.502;8.190;2023-02-01T04:55:59;5.00;99.90
66013;DHT22;52783;50.502;8.190;2023-02-01T04:58:24;5.00;99.90
66013;DHT22;52783;50.502;8.190;2023-02-01T05:00:50;5.00;99.90
66013;DHT22;52783;50.502;8.190;2023-02-01T05:03:16;5.00;99.90
66013;DHT22;52783;50.502;8.190;2023-02-01T05:05:42;4.90;99.90
66013;DHT22;52783;50.502;8.190;2023-02-01T05:08:07;4.90;99.90
66013;DHT22;52783;50.502;8.190;2023-02-01T05:10:33;4.90;99.90
66013;DHT22;52783;50.502;8.190;2023-02-01T05:12:58;4.90;99.90
66013;DHT22;52783;50.502;8.190;2023-02-01T05:15:43;4.90;99.90
66013;DHT22;52783;50.502;8.190;2023-02-01T05:18:08;4.90;99.90
66013;DHT22;52783;50.502;8.190;2023-02-01T05:20:34;4.80;99.90
66013;DHT22;52783;50.502;8.190;2023-02-01T05:22:59;4.80;99.90
66013;DHT22;52783;50.502;8.190;2023-02-01T05:25:25;4.80;99.90
66013;DHT22;52783;50.502;8.190;2023-02-01T05:27:51;4.80;99.90
66013;DHT22;52783;50.502;8.190;2023-02-01T05:30:16;4.80;99.90
66013;DHT22;52783;50.502;8.190;2023-02-01T05:32:42;4.80;99.90
66013;DHT22;52783;50.502;8.190;2023-02-01T05:35:08;4.80;99.90
66013;DHT22;52783;50.502;8.190;2023-02-01T05:37:34;4.80;99.90
66013;DHT22;52783;50.502;8.190;2023-02-01T05:40:00;4.80;99.90
66013;DHT22;52783;50.502;8.190;2023-02-01T05:42:26;4.80;99.90
66013;DHT22;52783;50.502;8.190;2023-02-01T05:44:51;4.80;99.90
66013;DHT22;52783;50.502;8.190;2023-02-01T05:47:17;4.70;99.90
66013;DHT22;52783;50.502;8.190;2023-02-01T05:49:42;4.70;99.90
66013;DHT22;52783;50.502;8.190;2023-02-01T05:52:08;4.70;99.90
66013;DHT22;52783;50.502;8.190;2023-02-01T05:54:34;4.70;99.90
66013;DHT22;52783;50.502;8.190;2023-02-01T05:56:59;4.70;99.90
66013;DHT22;52783;50.502;8.190;2023-02-01T05:59:25;4.60;99.90
66013;DHT22;52783;50.502;8.190;2023-02-01T06:01:50;4.60;99.90
66013;DHT22;52783;50.502;8.190;2023-02-01T06:04:17;4.60;99.90
66013;DHT22;52783;50.502;8.190;2023-02-01T06:06:42;4.50;99.90
66013;DHT22;52783;50.502;8.190;2023-02-01T06:09:08;4.40;99.90
66013;DHT22;52783;50.502;8.190;2023-02-01T06:11:33;4.40;99.90
66013;DHT22;52783;50.502;8.190;2023-02-01T06:13:59;4.40;99.90
66013;DHT22;52783;50.502;8.190;2023-02-01T06:16:25;4.40;99.90
66013;DHT22;52783;50.502;8.190;2023-02-01T06:18:50;4.30;99.90
66013;DHT22;52783;50.502;8.190;2023-02-01T06:21:16;4.40;99.90
66013;DHT22;52783;50.502;8.190;2023-02-01T06:23:50;4.40;99.90
66013;DHT22;52783;50.502;8.190;2023-02-01T06:26:16;4.40;99.90
66013;DHT22;52783;50.502;8.190;2023-02-01T06:28:43;4.40;99.90
66013;DHT22;52783;50.502;8.190;2023-02-01T06:31:09;4.30;99.90
66013;DHT22;52783;50.502;8.190;2023-02-01T06:33:36;4.30;99.90
66013;DHT22;52783;50.502;8.190;2023-02-01T06:36:04;4.30;99.90
66013;DHT22;52783;50.502;8.190;2023-02-01T06:38:30;4.40;99.90
66013;DHT22;52783;50.502;8.190;2023-02-01T06:40:57;4.40;99.90
66013;DHT22;52783;50.502;8.190;2023-02-01T06:43:24;4.40;99.90
66013;DHT22;52783;50.502;8.190;2023-02-01T06:45:50;4.40;99.90
66013;DHT22;52783;50.502;8.190;2023-02-01T06:48:17;4.50;99.90
66013;DHT22;52783;50.502;8.190;2023-02-01T06:50:42;4.40;99.90
66013;DHT22;52783;50.502;8.190;2023-02-01T06:53:08;4.40;99.90
66013;DHT22;52783;50.502;8.190;2023-02-01T06:55:34;4.50;99.90
66013;DHT22;52783;50.502;8.190;2023-02-01T06:57:59;4.50;99.90
66013;DHT22;52783;50.502;8.190;2023-02-01T07:00:26;4.60;99.90
66013;DHT22;52783;50.502;8.190;2023-02-01T07:02:51;4.60;99.90
66013;DHT22;52783;50.502;8.190;2023-02-01T07:05:17;4.60;99.90
66013;DHT22;52783;50.502;8.190;2023-02-01T07:07:43;4.60;99.90
66013;DHT22;52783;50.502;8.190;2023-02-01T07:10:10;4.70;99.90
66013;DHT22;52783;50.502;8.190;2023-02-01T07:12:35;4.70;99.90
66013;DHT22;52783;50.502;8.190;2023-02-01T07:15:02;4.70;99.90
66013;DHT22;52783;50.502;8.190;2023-02-01T07:17:28;4.70;99.90
66013;DHT22;52783;50.502;8.190;2023-02-01T07:19:56;4.70;99.90
66013;DHT22;52783;50.502;8.190;2023-02-01T07:22:23;4.90;99.90
66013;DHT22;52783;50.502;8.190;2023-02-01T07:24:49;4.80;99.90
66013;DHT22;52783;50.502;8.190;2023-02-01T07:27:15;4.80;99.90
66013;DHT22;52783;50.502;8.190;2023-02-01T07:29:40;4.70;99.90
66013;DHT22;52783;50.502;8.190;2023-02-01T07:32:06;4.70;99.90
66013;DHT22;52783;50.502;8.190;2023-02-01T07:34:31;4.80;99.90
66013;DHT22;52783;50.502;8.190;2023-02-01T07:36:57;4.80;99.90
66013;DHT22;52783;50.502;8.190;2023-02-01T07:39:22;4.80;99.90
66013;DHT22;52783;50.502;8.190;2023-02-01T07:41:48;4.80;99.90
66013;DHT22;52783;50.502;8.190;2023-02-01T07:44:13;4.80;99.90
66013;DHT22;52783;50.502;8.190;2023-02-01T07:46:39;4.80;99.90
66013;DHT22;52783;50.502;8.190;2023-02-01T07:49:05;4.80;99.90
66013;DHT22;52783;50.502;8.190;2023-02-01T07:51:31;4.80;99.90
66013;DHT22;52783;50.502;8.190;2023-02-01T07:53:57;4.80;99.90
66013;DHT22;52783;50.502;8.190;2023-02-01T07:56:23;4.90;99.90
66013;DHT22;52783;50.502;8.190;2023-02-01T07:58:53;4.80;99.90
66013;DHT22;52783;50.502;8.190;2023-02-01T08:01:24;4.90;99.90
66013;DHT22;52783;50.502;8.190;2023-02-01T08:03:55;4.90;99.90
66013;DHT22;52783;50.502;8.190;2023-02-01T08:06:22;4.80;99.90
66013;DHT22;52783;50.502;8.190;2023-02-01T08:08:49;4.80;99.90
66013;DHT22;52783;50.502;8.190;2023-02-01T08:11:15;4.90;99.90
66013;DHT22;52783;50.502;8.190;2023-02-01T08:13:42;4.90;99.90
66013;DHT22;52783;50.502;8.190;2023-02-01T08:16:09;4.80;99.90
66013;DHT22;52783;50.502;8.190;2023-02-01T08:18:36;4.80;99.90
66013;DHT22;52783;50.502;8.190;2023-02-01T08:21:07;4.90;99.90
66013;DHT22;52783;50.502;8.190;2023-02-01T08:23:35;4.90;99.90
66013;DHT22;52783;50.502;8.190;2023-02-01T08:26:09;4.80;99.90
66013;DHT22;52783;50.502;8.190;2023-02-01T08:28:35;4.90;99.90
66013;DHT22;52783;50.502;8.190;2023-02-01T08:31:08;4.90;99.90
66013;DHT22;52783;50.502;8.190;2023-02-01T08:33:34;4.90;99.90
66013;DHT22;52783;50.502;8.190;2023-02-01T08:36:02;5.00;99.90
66013;DHT22;52783;50.502;8.190;2023-02-01T08:38:27;5.00;99.90
66013;DHT22;52783;50.502;8.190;2023-02-01T08:40:53;4.90;99.90
66013;DHT22;52783;50.502;8.190;2023-02-01T08:43:18;4.90;99.90
66013;DHT22;52783;50.502;8.190;2023-02-01T08:45:44;4.90;99.90
66013;DHT22;52783;50.502;8.190;2023-02-01T08:48:10;4.90;99.90
66013;DHT22;52783;50.502;8.190;2023-02-01T08:50:35;4.90;99.90
66013;DHT22;52783;50.502;8.190;2023-02-01T08:53:01;4.90;99.90
66013;DHT22;52783;50.502;8.190;2023-02-01T08:55:26;4.90;99.90
66013;DHT22;52783;50.502;8.190;2023-02-01T08:57:53;5.00;99.90
66013;DHT22;52783;50.502;8.190;2023-02-01T09:00:18;5.00;99.90
66013;DHT22;52783;50.502;8.190;2023-02-01T09:02:44;5.00;99.90
66013;DHT22;52783;50.502;8.190;2023-02-01T09:05:10;5.00;99.90
66013;DHT22;52783;50.502;8.190;2023-02-01T09:07:37;5.00;99.90
66013;DHT22;52783;50.502;8.190;2023-02-01T09:10:03;5.00;99.90
66013;DHT22;52783;50.502;8.190;2023-02-01T09:12:30;5.00;99.90
66013;DHT22;52783;50.502;8.190;2023-02-01T09:14:57;5.00;99.90
66013;DHT22;52783;50.502;8.190;2023-02-01T09:17:27;5.00;99.90
66013;DHT22;52783;50.502;8.190;2023-02-01T09:19:53;5.00;99.90
66013;DHT22;52783;50.502;8.190;2023-02-01T09:22:19;5.10;99.90
66013;DHT22;52783;50.502;8.190;2023-02-01T09:24:44;5.00;99.90
66013;DHT22;52783;50.502;8.190;2023-02-01T09:27:10;5.10;99.90
66013;DHT22;52783;50.502;8.190;2023-02-01T09:29:36;5.20;99.90
66013;DHT22;52783;50.502;8.190;2023-02-01T09:32:01;5.20;99.90
66013;DHT22;52783;50.502;8.190;2023-02-01T09:34:27;5.10;99.90
66013;DHT22;52783;50.502;8.190;2023-02-01T09:36:52;5.10;99.90
66013;DHT22;52783;50.502;8.190;2023-02-01T09:39:19;5.10;99.90
66013;DHT22;52783;50.502;8.190;2023-02-01T09:41:51;5.20;99.90
66013;DHT22;52783;50.502;8.190;2023-02-01T09:44:31;5.20;99.90
66013;DHT22;52783;50.502;8.190;2023-02-01T09:47:01;5.30;99.90
66013;DHT22;52783;50.502;8.190;2023-02-01T09:49:32;5.20;99.90
66013;DHT22;52783;50.502;8.190;2023-02-01T09:52:02;5.20;99.90
66013;DHT22;52783;50.502;8.190;2023-02-01T10:00:12;5.30;99.90
66013;DHT22;52783;50.502;8.190;2023-02-01T10:02:42;5.30;99.90
66013;DHT22;52783;50.502;8.190;2023-02-01T10:05:12;5.30;99.90
66013;DHT22;52783;50.502;8.190;2023-02-01T10:07:57;5.30;99.90
66013;DHT22;52783;50.502;8.190;2023-02-01T10:16:10;5.50;99.90
66013;DHT22;52783;50.502;8.190;2023-02-01T10:27:14;5.50;99.90
66013;DHT22;52783;50.502;8.190;2023-02-01T10:29:43;5.50;99.90
66013;DHT22;52783;50.502;8.190;2023-02-01T10:32:14;5.50;99.90
66013;DHT22;52783;50.502;8.190;2023-02-01T10:34:41;5.60;99.90
66013;DHT22;52783;50.502;8.190;2023-02-01T10:37:26;5.70;99.90
66013;DHT22;52783;50.502;8.190;2023-02-01T10:39:59;5.60;99.90
66013;DHT22;52783;50.502;8.190;2023-02-01T10:42:27;5.70;99.90
66013;DHT22;52783;50.502;8.190;2023-02-01T10:44:56;5.70;99.90
66013;DHT22;52783;50.502;8.190;2023-02-01T10:47:23;5.70;99.90
66013;DHT22;52783;50.502;8.190;2023-02-01T10:49:56;5.70;99.90
66013;DHT22;52783;50.502;8.190;2023-02-01T10:52:37;5.70;99.90
66013;DHT22;52783;50.502;8.190;2023-02-01T10:57:59;5.70;99.90
66013;DHT22;52783;50.502;8.190;2023-02-01T11:00:26;5.80;99.90
66013;DHT22;52783;50.502;8.190;2023-02-01T11:02:52;5.80;99.90
66013;DHT22;52783;50.502;8.190;2023-02-01T11:05:18;5.70;99.90
66013;DHT22;52783;50.502;8.190;2023-02-01T11:07:54;5.70;99.90
66013;DHT22;52783;50.502;8.190;2023-02-01T11:10:41;5.80;99.90
66013;DHT22;52783;50.502;8.190;2023-02-01T11:13:13;5.70;99.90
66013;DHT22;52783;50.502;8.190;2023-02-01T11:15:43;5.80;99.90
66013;DHT22;52783;50.502;8.190;2023-02-01T11:18:18;5.80;99.90
66013;DHT22;52783;50.502;8.190;2023-02-01T11:20:45;5.90;99.90
66013;DHT22;52783;50.502;8.190;2023-02-01T11:23:25;5.90;99.90
66013;DHT22;52783;50.502;8.190;2023-02-01T11:25:56;5.90;99.90
66013;DHT22;52783;50.502;8.190;2023-02-01T11:28:26;5.90;99.90
66013;DHT22;52783;50.502;8.190;2023-02-01T11:30:55;5.90;99.90
66013;DHT22;52783;50.502;8.190;2023-02-01T11:33:25;6.00;99.90
66013;DHT22;52783;50.502;8.190;2023-02-01T11:35:56;5.90;99.90
66013;DHT22;52783;50.502;8.190;2023-02-01T11:38:31;6.00;99.90
66013;DHT22;52783;50.502;8.190;2023-02-01T11:41:14;6.10;99.90
66013;DHT22;52783;50.502;8.190;2023-02-01T11:46:23;6.20;99.90
66013;DHT22;52783;50.502;8.190;2023-02-01T11:48:52;6.30;99.90
66013;DHT22;52783;50.502;8.190;2023-02-01T11:51:34;6.30;99.90
66013;DHT22;52783;50.502;8.190;2023-02-01T11:54:20;6.30;99.90
66013;DHT22;52783;50.502;8.190;2023-02-01T12:05:33;6.80;99.90
66013;DHT22;52783;50.502;8.190;2023-02-01T12:11:01;6.70;99.90
66013;DHT22;52783;50.502;8.190;2023-02-01T12:27:30;6.70;99.90
66013;DHT22;52783;50.502;8.190;2023-02-01T12:30:17;6.60;99.90
66013;DHT22;52783;50.502;8.190;2023-02-01T12:48:28;6.60;99.90
66013;DHT22;52783;50.502;8.190;2023-02-01T12:51:05;6.70;99.90
66013;DHT22;52783;50.502;8.190;2023-02-01T12:53:55;6.80;99.90
66013;DHT22;52783;50.502;8.190;2023-02-01T12:58:53;6.70;99.90
66013;DHT22;52783;50.502;8.190;2023-02-01T13:01:26;6.70;99.90
66013;DHT22;52783;50.502;8.190;2023-02-01T13:04:10;6.70;99.90
66013;DHT22;52783;50.502;8.190;2023-02-01T13:12:28;6.60;99.90
66013;DHT22;52783;50.502;8.190;2023-02-01T13:15:17;6.70;99.90
66013;DHT22;52783;50.502;8.190;2023-02-01T13:17:46;6.70;99.90
66013;DHT22;52783;50.502;8.190;2023-02-01T13:23:37;6.70;99.90
66013;DHT22;52783;50.502;8.190;2023-02-01T13:25:47;6.70;99.90
66013;DHT22;52783;50.502;8.190;2023-02-01T13:28:23;6.70;99.90
66013;DHT22;52783;50.502;8.190;2023-02-01T13:33:38;6.80;99.90
66013;DHT22;52783;50.502;8.190;2023-02-01T13:36:53;6.80;99.90
66013;DHT22;52783;50.502;8.190;2023-02-01T13:42:23;7.10;99.90
66013;DHT22;52783;50.502;8.190;2023-02-01T13:45:00;7.10;99.90
66013;DHT22;52783;50.502;8.190;2023-02-01T13:47:32;7.00;99.90
66013;DHT22;52783;50.502;8.190;2023-02-01T13:50:04;7.00;99.90
66013;DHT22;52783;50.502;8.190;2023-02-01T13:52:43;7.00;99.90
66013;DHT22;52783;50.502;8.190;2023-02-01T13:57:39;6.80;99.90
66013;DHT22;52783;50.502;8.190;2023-02-01T14:00:08;6.80;99.90
66013;DHT22;52783;50.502;8.190;2023-02-01T14:05:10;6.90;99.90
66013;DHT22;52783;50.502;8.190;2023-02-01T14:10:48;6.90;99.90
66013;DHT22;52783;50.502;8.190;2023-02-01T14:21:29;6.80;99.90
66013;DHT22;52783;50.502;8.190;2023-02-01T14:26:52;6.60;99.90
66013;DHT22;52783;50.502;8.190;2023-02-01T14:29:50;6.60;99.90
66013;DHT22;52783;50.502;8.190;2023-02-01T14:32:34;6.50;99.90
66013;DHT22;52783;50.502;8.190;2023-02-01T14:35:01;6.30;99.90
66013;DHT22;52783;50.502;8.190;2023-02-01T14:37:33;6.40;99.90
66013;DHT22;52783;50.502;8.190;2023-02-01T14:50:47;6.10;99.90
66013;DHT22;52783;50.502;8.190;2023-02-01T14:53:21;5.90;99.90
66013;DHT22;52783;50.502;8.190;2023-02-01T15:01:23;5.80;99.90
66013;DHT22;52783;50.502;8.190;2023-02-01T15:04:06;5.70;99.90
66013;DHT22;52783;50.502;8.190;2023-02-01T15:09:26;5.40;99.90
66013;DHT22;52783;50.502;8.190;2023-02-01T15:12:14;5.40;99.90
66013;DHT22;52783;50.502;8.190;2023-02-01T15:14:46;5.40;99.90
66013;DHT22;52783;50.502;8.190;2023-02-01T15:17:21;5.30;99.90
66013;DHT22;52783;50.502;8.190;2023-02-01T15:19:55;5.40;99.90
66013;DHT22;52783;50.502;8.190;2023-02-01T15:22:21;5.50;99.90
66013;DHT22;52783;50.502;8.190;2023-02-01T15:24:55;5.40;99.90
66013;DHT22;52783;50.502;8.190;2023-02-01T15:27:22;5.40;99.90
66013;DHT22;52783;50.502;8.190;2023-02-01T15:29:47;5.40;99.90
66013;DHT22;52783;50.502;8.190;2023-02-01T15:32:35;5.50;99.90
66013;DHT22;52783;50.502;8.190;2023-02-01T15:35:01;5.50;99.90
66013;DHT22;52783;50.502;8.190;2023-02-01T15:37:28;5.50;99.90
66013;DHT22;52783;50.502;8.190;2023-02-01T15:42:49;5.60;99.90
66013;DHT22;52783;50.502;8.190;2023-02-01T15:45:18;5.60;99.90
66013;DHT22;52783;50.502;8.190;2023-02-01T15:47:48;5.60;99.90
66013;DHT22;52783;50.502;8.190;2023-02-01T15:50:18;5.60;99.90
66013;DHT22;52783;50.502;8.190;2023-02-01T15:52:46;5.60;99.90
66013;DHT22;52783;50.502;8.190;2023-02-01T15:55:40;5.70;99.90
66013;DHT22;52783;50.502;8.190;2023-02-01T15:58:09;5.70;99.90
66013;DHT22;52783;50.502;8.190;2023-02-01T16:00:47;5.70;99.90
66013;DHT22;52783;50.502;8.190;2023-02-01T16:03:37;5.70;99.90
66013;DHT22;52783;50.502;8.190;2023-02-01T16:06:06;5.80;99.90
66013;DHT22;52783;50.502;8.190;2023-02-01T16:08:32;5.80;99.90
66013;DHT22;52783;50.502;8.190;2023-02-01T16:11:13;5.80;99.90
66013;DHT22;52783;50.502;8.190;2023-02-01T16:13:40;5.90;99.90
66013;DHT22;52783;50.502;8.190;2023-02-01T16:16:08;5.90;99.90
66013;DHT22;52783;50.502;8.190;2023-02-01T16:18:39;6.00;99.90
66013;DHT22;52783;50.502;8.190;2023-02-01T16:21:05;6.00;99.90
66013;DHT22;52783;50.502;8.190;2023-02-01T16:23:33;6.10;99.90
66013;DHT22;52783;50.502;8.190;2023-02-01T16:25:58;6.10;99.90
66013;DHT22;52783;50.502;8.190;2023-02-01T16:28:24;6.20;99.90
66013;DHT22;52783;50.502;8.190;2023-02-01T16:30:50;6.10;99.90
66013;DHT22;52783;50.502;8.190;2023-02-01T16:33:18;6.20;99.90
66013;DHT22;52783;50.502;8.190;2023-02-01T16:35:47;6.20;99.90
66013;DHT22;52783;50.502;8.190;2023-02-01T16:38:16;6.20;99.90
66013;DHT22;52783;50.502;8.190;2023-02-01T16:40:45;6.20;99.90
66013;DHT22;52783;50.502;8.190;2023-02-01T16:43:13;6.30;99.90
66013;DHT22;52783;50.502;8.190;2023-02-01T16:45:40;6.30;99.90
66013;DHT22;52783;50.502;8.190;2023-02-01T16:48:06;6.20;99.90
66013;DHT22;52783;50.502;8.190;2023-02-01T16:50:32;6.20;99.90
66013;DHT22;52783;50.502;8.190;2023-02-01T16:52:59;6.10;99.90
66013;DHT22;52783;50.502;8.190;2023-02-01T16:55:24;6.10;99.90
66013;DHT22;52783;50.502;8.190;2023-02-01T16:57:51;6.00;99.90
66013;DHT22;52783;50.502;8.190;2023-02-01T17:00:17;6.00;99.90
66013;DHT22;52783;50.502;8.190;2023-02-01T17:02:43;6.00;99.90
66013;DHT22;52783;50.502;8.190;2023-02-01T17:05:09;6.00;99.90
66013;DHT22;52783;50.502;8.190;2023-02-01T17:07:35;5.90;99.90
66013;DHT22;52783;50.502;8.190;2023-02-01T17:10:04;5.90;99.90
66013;DHT22;52783;50.502;8.190;2023-02-01T17:12:32;5.80;99.90
66013;DHT22;52783;50.502;8.190;2023-02-01T17:14:59;5.70;99.90
66013;DHT22;52783;50.502;8.190;2023-02-01T17:17:36;5.70;99.90
66013;DHT22;52783;50.502;8.190;2023-02-01T17:20:03;5.70;99.90
66013;DHT22;52783;50.502;8.190;2023-02-01T17:22:29;5.60;99.90
66013;DHT22;52783;50.502;8.190;2023-02-01T17:24:54;5.60;99.90
66013;DHT22;52783;50.502;8.190;2023-02-01T17:27:20;5.50;99.90
66013;DHT22;52783;50.502;8.190;2023-02-01T17:29:45;5.60;99.90
66013;DHT22;52783;50.502;8.190;2023-02-01T17:32:18;5.60;99.90
66013;DHT22;52783;50.502;8.190;2023-02-01T17:34:44;5.50;99.90
66013;DHT22;52783;50.502;8.190;2023-02-01T17:37:28;5.40;99.90
66013;DHT22;52783;50.502;8.190;2023-02-01T17:40:00;5.50;99.90
66013;DHT22;52783;50.502;8.190;2023-02-01T17:42:29;5.40;99.90
66013;DHT22;52783;50.502;8.190;2023-02-01T17:45:18;5.50;99.90
66013;DHT22;52783;50.502;8.190;2023-02-01T17:47:45;5.40;99.90
66013;DHT22;52783;50.502;8.190;2023-02-01T17:50:12;5.30;99.90
66013;DHT22;52783;50.502;8.190;2023-02-01T17:52:38;5.40;99.90
66013;DHT22;52783;50.502;8.190;2023-02-01T17:55:15;5.40;99.90
66013;DHT22;52783;50.502;8.190;2023-02-01T17:57:40;5.30;99.90
66013;DHT22;52783;50.502;8.190;2023-02-01T18:00:07;5.30;99.90
66013;DHT22;52783;50.502;8.190;2023-02-01T18:02:33;5.30;99.90
66013;DHT22;52783;50.502;8.190;2023-02-01T18:04:59;5.30;99.90
66013;DHT22;52783;50.502;8.190;2023-02-01T18:07:25;5.30;99.90
66013;DHT22;52783;50.502;8.190;2023-02-01T18:09:51;5.30;99.90
66013;DHT22;52783;50.502;8.190;2023-02-01T18:12:22;5.40;99.90
66013;DHT22;52783;50.502;8.190;2023-02-01T18:14:49;5.30;99.90
66013;DHT22;52783;50.502;8.190;2023-02-01T18:17:15;5.30;99.90
66013;DHT22;52783;50.502;8.190;2023-02-01T18:19:40;5.30;99.90
66013;DHT22;52783;50.502;8.190;2023-02-01T18:22:14;5.30;99.90
66013;DHT22;52783;50.502;8.190;2023-02-01T18:24:40;5.30;99.90
66013;DHT22;52783;50.502;8.190;2023-02-01T18:27:07;5.30;99.90
66013;DHT22;52783;50.502;8.190;2023-02-01T18:29:32;5.20;99.90